Terminal Aerodrome Forecast
Issued by NWS

Home | Current Version | Previous Version | Text Only | Print | Product List | Glossary On
Versions: 1 2 3 4 5 6 7 8 9 10 11 12 13 14 15 16 17 18 19 20 21 22 23 24 25 26 27 28 29 30 31 32 33 34 35 36 37 38 39 40 41 42 43 44 45 46 47 48 49 50
000
FTUS45 KBOU 282333
TAFBJC
TAF
KBJC 282333Z 2900/2924 16008G16KT P6SM TS SCT070CB BKN140
      TEMPO 2900/2902 VRB20G30KT 5SM TSRA BKN050CB OVC070
     FM290200 20007KT P6SM VCTS SCT060CB BKN090
      TEMPO 2902/2904 VRB15G25KT 4SM TSRA BKN050CB
     FM290500 26006KT P6SM SCT040 BKN100
     FM291400 01009KT P6SM FEW012 SCT030 BKN060
     FM291900 08009KT P6SM VCSH SCT040 BKN070
      TEMPO 2920/2924 VRB20G35KT 5SM +TSRA BKN030CB=

USA.gov is the U.S. government's official web portal to all federal, state and local government web resources and services.